sensor_id;sensor_type;location;lat;lon;timestamp;P1;durP1;ratioP1;P2;durP2;ratioP2
295;SDS011;132;48.770;9.200;2023-04-03T00:00:09;5.57;;;3.70;;
295;SDS011;132;48.770;9.200;2023-04-03T00:02:36;8.18;;;4.20;;
295;SDS011;132;48.770;9.200;2023-04-03T00:05:03;4.25;;;3.30;;
295;SDS011;132;48.770;9.200;2023-04-03T00:07:30;5.70;;;3.50;;
295;SDS011;132;48.770;9.200;2023-04-03T00:09:56;5.63;;;3.60;;
295;SDS011;132;48.770;9.200;2023-04-03T00:12:22;6.82;;;4.20;;
295;SDS011;132;48.770;9.200;2023-04-03T00:14:49;4.93;;;3.90;;
295;SDS011;132;48.770;9.200;2023-04-03T00:17:15;6.60;;;3.60;;
295;SDS011;132;48.770;9.200;2023-04-03T00:19:41;6.57;;;3.65;;
295;SDS011;132;48.770;9.200;2023-04-03T00:22:08;5.63;;;3.80;;
295;SDS011;132;48.770;9.200;2023-04-03T00:24:34;4.90;;;3.53;;
295;SDS011;132;48.770;9.200;2023-04-03T00:27:00;6.75;;;4.10;;
295;SDS011;132;48.770;9.200;2023-04-03T00:29:27;4.72;;;3.60;;
295;SDS011;132;48.770;9.200;2023-04-03T00:31:53;4.45;;;3.80;;
295;SDS011;132;48.770;9.200;2023-04-03T00:34:19;4.65;;;3.95;;
295;SDS011;132;48.770;9.200;2023-04-03T00:36:46;6.45;;;4.45;;
295;SDS011;132;48.770;9.200;2023-04-03T00:39:12;3.97;;;3.42;;
295;SDS011;132;48.770;9.200;2023-04-03T00:41:39;5.82;;;3.88;;
295;SDS011;132;48.770;9.200;2023-04-03T00:44:19;4.20;;;3.35;;
295;SDS011;132;48.770;9.200;2023-04-03T00:46:48;6.38;;;3.85;;
295;SDS011;132;48.770;9.200;2023-04-03T00:49:14;5.20;;;3.58;;
295;SDS011;132;48.770;9.200;2023-04-03T00:51:41;6.35;;;3.97;;
295;SDS011;132;48.770;9.200;2023-04-03T00:54:07;4.45;;;3.30;;
295;SDS011;132;48.770;9.200;2023-04-03T00:56:34;4.78;;;3.60;;
295;SDS011;132;48.770;9.200;2023-04-03T00:59:07;4.72;;;3.70;;
295;SDS011;132;48.770;9.200;2023-04-03T01:01:37;6.25;;;3.80;;
295;SDS011;132;48.770;9.200;2023-04-03T01:04:04;4.30;;;3.78;;
295;SDS011;132;48.770;9.200;2023-04-03T01:06:34;5.28;;;3.50;;
295;SDS011;132;48.770;9.200;2023-04-03T01:09:08;5.05;;;3.20;;
295;SDS011;132;48.770;9.200;2023-04-03T01:11:34;6.25;;;3.80;;
295;SDS011;132;48.770;9.200;2023-04-03T01:14:01;5.63;;;3.60;;
295;SDS011;132;48.770;9.200;2023-04-03T01:16:29;5.40;;;3.80;;
295;SDS011;132;48.770;9.200;2023-04-03T01:18:58;5.70;;;4.03;;
295;SDS011;132;48.770;9.200;2023-04-03T01:21:36;6.55;;;4.10;;
295;SDS011;132;48.770;9.200;2023-04-03T01:26:44;6.80;;;4.00;;
295;SDS011;132;48.770;9.200;2023-04-03T01:29:10;11.85;;;4.40;;
295;SDS011;132;48.770;9.200;2023-04-03T01:34:11;6.28;;;3.85;;
295;SDS011;132;48.770;9.200;2023-04-03T01:36:38;6.28;;;4.00;;
295;SDS011;132;48.770;9.200;2023-04-03T01:39:04;4.70;;;3.80;;
295;SDS011;132;48.770;9.200;2023-04-03T01:41:31;7.93;;;4.13;;
295;SDS011;132;48.770;9.200;2023-04-03T01:44:09;8.07;;;4.40;;
295;SDS011;132;48.770;9.200;2023-04-03T01:46:36;6.05;;;4.00;;
295;SDS011;132;48.770;9.200;2023-04-03T01:49:03;6.20;;;4.00;;
295;SDS011;132;48.770;9.200;2023-04-03T01:51:30;5.53;;;3.40;;
295;SDS011;132;48.770;9.200;2023-04-03T01:53:57;9.57;;;4.20;;
295;SDS011;132;48.770;9.200;2023-04-03T01:56:23;5.35;;;3.70;;
295;SDS011;132;48.770;9.200;2023-04-03T01:58:50;5.13;;;4.00;;
295;SDS011;132;48.770;9.200;2023-04-03T02:01:17;5.30;;;4.00;;
295;SDS011;132;48.770;9.200;2023-04-03T02:03:43;5.18;;;3.80;;
295;SDS011;132;48.770;9.200;2023-04-03T02:06:10;5.80;;;4.00;;
295;SDS011;132;48.770;9.200;2023-04-03T02:08:36;5.60;;;4.07;;
295;SDS011;132;48.770;9.200;2023-04-03T02:11:03;5.15;;;4.00;;
295;SDS011;132;48.770;9.200;2023-04-03T02:13:29;6.43;;;4.07;;
295;SDS011;132;48.770;9.200;2023-04-03T02:15:55;5.60;;;3.60;;
295;SDS011;132;48.770;9.200;2023-04-03T02:18:22;7.50;;;4.05;;
295;SDS011;132;48.770;9.200;2023-04-03T02:20:48;7.85;;;4.10;;
295;SDS011;132;48.770;9.200;2023-04-03T02:23:14;7.05;;;3.90;;
295;SDS011;132;48.770;9.200;2023-04-03T02:25:41;7.22;;;4.45;;
295;SDS011;132;48.770;9.200;2023-04-03T02:28:07;5.65;;;3.63;;
295;SDS011;132;48.770;9.200;2023-04-03T02:30:34;6.72;;;3.33;;
295;SDS011;132;48.770;9.200;2023-04-03T02:33:00;4.43;;;3.45;;
295;SDS011;132;48.770;9.200;2023-04-03T02:35:26;4.90;;;3.60;;
295;SDS011;132;48.770;9.200;2023-04-03T02:37:55;8.13;;;4.32;;
295;SDS011;132;48.770;9.200;2023-04-03T02:40:22;6.95;;;4.25;;
295;SDS011;132;48.770;9.200;2023-04-03T02:42:49;4.85;;;3.80;;
295;SDS011;132;48.770;9.200;2023-04-03T02:45:17;6.55;;;4.13;;
295;SDS011;132;48.770;9.200;2023-04-03T02:47:43;6.95;;;4.20;;
295;SDS011;132;48.770;9.200;2023-04-03T02:50:10;6.28;;;4.00;;
295;SDS011;132;48.770;9.200;2023-04-03T02:52:36;5.78;;;3.72;;
295;SDS011;132;48.770;9.200;2023-04-03T02:55:03;6.60;;;4.40;;
295;SDS011;132;48.770;9.200;2023-04-03T02:57:31;5.75;;;3.47;;
295;SDS011;132;48.770;9.200;2023-04-03T02:59:57;6.07;;;4.03;;
295;SDS011;132;48.770;9.200;2023-04-03T03:02:23;6.18;;;4.00;;
295;SDS011;132;48.770;9.200;2023-04-03T03:04:50;7.30;;;4.05;;
295;SDS011;132;48.770;9.200;2023-04-03T03:07:17;7.97;;;4.35;;
295;SDS011;132;48.770;9.200;2023-04-03T03:09:43;7.15;;;4.57;;
295;SDS011;132;48.770;9.200;2023-04-03T03:12:10;7.65;;;4.00;;
295;SDS011;132;48.770;9.200;2023-04-03T03:14:36;6.18;;;4.03;;
295;SDS011;132;48.770;9.200;2023-04-03T03:17:02;7.22;;;4.13;;
295;SDS011;132;48.770;9.200;2023-04-03T03:19:29;6.70;;;4.18;;
295;SDS011;132;48.770;9.200;2023-04-03T03:21:56;5.72;;;3.90;;
295;SDS011;132;48.770;9.200;2023-04-03T03:24:22;6.13;;;4.05;;
295;SDS011;132;48.770;9.200;2023-04-03T03:26:49;7.72;;;3.90;;
295;SDS011;132;48.770;9.200;2023-04-03T03:29:15;4.88;;;3.85;;
295;SDS011;132;48.770;9.200;2023-04-03T03:31:43;6.05;;;3.70;;
295;SDS011;132;48.770;9.200;2023-04-03T03:34:10;7.47;;;3.88;;
295;SDS011;132;48.770;9.200;2023-04-03T03:36:38;5.53;;;3.97;;
295;SDS011;132;48.770;9.200;2023-04-03T03:39:04;7.10;;;4.13;;
295;SDS011;132;48.770;9.200;2023-04-03T03:41:31;6.80;;;4.15;;
295;SDS011;132;48.770;9.200;2023-04-03T03:43:57;6.40;;;4.07;;
295;SDS011;132;48.770;9.200;2023-04-03T03:46:25;7.53;;;4.07;;
295;SDS011;132;48.770;9.200;2023-04-03T03:48:53;16.40;;;4.00;;
295;SDS011;132;48.770;9.200;2023-04-03T03:51:19;8.65;;;4.30;;
295;SDS011;132;48.770;9.200;2023-04-03T03:53:45;9.23;;;4.50;;
295;SDS011;132;48.770;9.200;2023-04-03T03:56:15;6.70;;;3.60;;
295;SDS011;132;48.770;9.200;2023-04-03T03:58:42;6.15;;;3.80;;
295;SDS011;132;48.770;9.200;2023-04-03T04:01:08;4.18;;;3.65;;
295;SDS011;132;48.770;9.200;2023-04-03T04:03:41;5.13;;;3.70;;
295;SDS011;132;48.770;9.200;2023-04-03T04:06:10;5.35;;;3.67;;
295;SDS011;132;48.770;9.200;2023-04-03T04:08:37;5.30;;;3.83;;
295;SDS011;132;48.770;9.200;2023-04-03T04:11:06;4.80;;;3.40;;
295;SDS011;132;48.770;9.200;2023-04-03T04:13:33;5.82;;;3.70;;
295;SDS011;132;48.770;9.200;2023-04-03T04:16:00;7.15;;;3.65;;
295;SDS011;132;48.770;9.200;2023-04-03T04:18:28;8.65;;;3.67;;
295;SDS011;132;48.770;9.200;2023-04-03T04:20:54;5.50;;;3.67;;
295;SDS011;132;48.770;9.200;2023-04-03T04:23:21;5.63;;;3.80;;
295;SDS011;132;48.770;9.200;2023-04-03T04:25:49;5.38;;;3.55;;
295;SDS011;132;48.770;9.200;2023-04-03T04:28:17;4.60;;;3.35;;
295;SDS011;132;48.770;9.200;2023-04-03T04:30:44;7.13;;;3.95;;
295;SDS011;132;48.770;9.200;2023-04-03T04:33:12;6.28;;;3.70;;
295;SDS011;132;48.770;9.200;2023-04-03T04:35:41;4.05;;;3.25;;
295;SDS011;132;48.770;9.200;2023-04-03T04:38:09;4.90;;;3.45;;
295;SDS011;132;48.770;9.200;2023-04-03T04:40:36;4.95;;;3.67;;
295;SDS011;132;48.770;9.200;2023-04-03T04:43:03;5.78;;;3.50;;
295;SDS011;132;48.770;9.200;2023-04-03T04:45:30;9.00;;;3.92;;
295;SDS011;132;48.770;9.200;2023-04-03T04:47:57;5.28;;;3.80;;
295;SDS011;132;48.770;9.200;2023-04-03T04:50:24;5.68;;;3.53;;
295;SDS011;132;48.770;9.200;2023-04-03T04:52:51;6.95;;;3.50;;
295;SDS011;132;48.770;9.200;2023-04-03T04:55:18;4.53;;;3.33;;
295;SDS011;132;48.770;9.200;2023-04-03T04:57:44;5.30;;;3.38;;
295;SDS011;132;48.770;9.200;2023-04-03T05:00:11;4.78;;;3.05;;
295;SDS011;132;48.770;9.200;2023-04-03T05:02:38;5.93;;;3.38;;
295;SDS011;132;48.770;9.200;2023-04-03T05:05:05;5.55;;;3.33;;
295;SDS011;132;48.770;9.200;2023-04-03T05:07:33;4.10;;;3.40;;
295;SDS011;132;48.770;9.200;2023-04-03T05:10:02;6.40;;;3.67;;
295;SDS011;132;48.770;9.200;2023-04-03T05:12:30;4.93;;;3.05;;
295;SDS011;132;48.770;9.200;2023-04-03T05:15:00;4.38;;;3.10;;
295;SDS011;132;48.770;9.200;2023-04-03T05:17:28;5.65;;;3.20;;
295;SDS011;132;48.770;9.200;2023-04-03T05:19:56;5.10;;;3.42;;
295;SDS011;132;48.770;9.200;2023-04-03T05:22:24;8.18;;;3.28;;
295;SDS011;132;48.770;9.200;2023-04-03T05:24:55;4.47;;;3.35;;
295;SDS011;132;48.770;9.200;2023-04-03T05:27:23;6.20;;;3.90;;
295;SDS011;132;48.770;9.200;2023-04-03T05:29:52;9.25;;;4.80;;
295;SDS011;132;48.770;9.200;2023-04-03T05:32:22;5.88;;;3.75;;
295;SDS011;132;48.770;9.200;2023-04-03T05:34:58;5.47;;;3.45;;
295;SDS011;132;48.770;9.200;2023-04-03T05:37:25;8.60;;;4.15;;
295;SDS011;132;48.770;9.200;2023-04-03T05:39:52;5.80;;;3.72;;
295;SDS011;132;48.770;9.200;2023-04-03T05:42:19;4.75;;;3.55;;
295;SDS011;132;48.770;9.200;2023-04-03T05:44:45;17.98;;;4.13;;
295;SDS011;132;48.770;9.200;2023-04-03T05:47:13;7.10;;;3.92;;
295;SDS011;132;48.770;9.200;2023-04-03T05:49:40;4.10;;;3.30;;
295;SDS011;132;48.770;9.200;2023-04-03T05:52:17;4.68;;;3.70;;
295;SDS011;132;48.770;9.200;2023-04-03T05:54:48;6.05;;;4.07;;
295;SDS011;132;48.770;9.200;2023-04-03T05:57:20;5.45;;;3.70;;
295;SDS011;132;48.770;9.200;2023-04-03T05:59:47;5.85;;;3.63;;
295;SDS011;132;48.770;9.200;2023-04-03T06:02:15;5.70;;;3.75;;
295;SDS011;132;48.770;9.200;2023-04-03T06:04:45;9.02;;;4.15;;
295;SDS011;132;48.770;9.200;2023-04-03T06:07:13;4.75;;;3.70;;
295;SDS011;132;48.770;9.200;2023-04-03T06:09:41;6.03;;;3.70;;
295;SDS011;132;48.770;9.200;2023-04-03T06:12:08;5.32;;;3.72;;
295;SDS011;132;48.770;9.200;2023-04-03T06:14:35;6.88;;;4.10;;
295;SDS011;132;48.770;9.200;2023-04-03T06:17:02;6.20;;;4.00;;
295;SDS011;132;48.770;9.200;2023-04-03T06:19:28;6.00;;;3.85;;
295;SDS011;132;48.770;9.200;2023-04-03T06:21:56;8.38;;;4.20;;
295;SDS011;132;48.770;9.200;2023-04-03T06:24:23;8.55;;;3.75;;
295;SDS011;132;48.770;9.200;2023-04-03T06:26:50;5.68;;;3.80;;
295;SDS011;132;48.770;9.200;2023-04-03T06:29:20;5.88;;;3.58;;
295;SDS011;132;48.770;9.200;2023-04-03T06:31:47;5.70;;;3.65;;
295;SDS011;132;48.770;9.200;2023-04-03T06:34:14;5.63;;;4.13;;
295;SDS011;132;48.770;9.200;2023-04-03T06:36:42;7.07;;;3.60;;
295;SDS011;132;48.770;9.200;2023-04-03T06:39:11;6.40;;;3.70;;
295;SDS011;132;48.770;9.200;2023-04-03T06:41:41;11.13;;;3.92;;
295;SDS011;132;48.770;9.200;2023-04-03T06:44:07;5.65;;;3.50;;
295;SDS011;132;48.770;9.200;2023-04-03T06:46:37;5.85;;;3.80;;
295;SDS011;132;48.770;9.200;2023-04-03T06:49:04;5.50;;;3.55;;
295;SDS011;132;48.770;9.200;2023-04-03T06:51:33;6.53;;;3.83;;
295;SDS011;132;48.770;9.200;2023-04-03T06:54:01;5.43;;;3.95;;
295;SDS011;132;48.770;9.200;2023-04-03T06:56:28;4.38;;;3.35;;
295;SDS011;132;48.770;9.200;2023-04-03T06:58:55;6.18;;;3.78;;
295;SDS011;132;48.770;9.200;2023-04-03T07:01:24;8.00;;;4.07;;
295;SDS011;132;48.770;9.200;2023-04-03T07:03:53;6.63;;;3.40;;
295;SDS011;132;48.770;9.200;2023-04-03T07:06:20;4.30;;;3.40;;
295;SDS011;132;48.770;9.200;2023-04-03T07:08:47;10.52;;;3.80;;
295;SDS011;132;48.770;9.200;2023-04-03T07:11:15;4.57;;;3.40;;
295;SDS011;132;48.770;9.200;2023-04-03T07:13:41;5.68;;;3.80;;
295;SDS011;132;48.770;9.200;2023-04-03T07:16:08;5.40;;;3.80;;
295;SDS011;132;48.770;9.200;2023-04-03T07:18:35;8.18;;;3.65;;
295;SDS011;132;48.770;9.200;2023-04-03T07:21:01;6.68;;;3.30;;
295;SDS011;132;48.770;9.200;2023-04-03T07:23:28;6.75;;;4.20;;
295;SDS011;132;48.770;9.200;2023-04-03T07:25:55;5.78;;;3.83;;
295;SDS011;132;48.770;9.200;2023-04-03T07:28:22;7.32;;;3.65;;
295;SDS011;132;48.770;9.200;2023-04-03T07:30:52;6.60;;;3.75;;
295;SDS011;132;48.770;9.200;2023-04-03T07:33:21;8.93;;;3.80;;
295;SDS011;132;48.770;9.200;2023-04-03T07:35:48;5.85;;;3.40;;
295;SDS011;132;48.770;9.200;2023-04-03T07:38:15;9.50;;;3.80;;
295;SDS011;132;48.770;9.200;2023-04-03T07:40:45;6.15;;;3.63;;
295;SDS011;132;48.770;9.200;2023-04-03T07:43:16;6.72;;;3.80;;
295;SDS011;132;48.770;9.200;2023-04-03T07:45:44;7.28;;;3.50;;
295;SDS011;132;48.770;9.200;2023-04-03T07:48:11;5.97;;;3.65;;
295;SDS011;132;48.770;9.200;2023-04-03T07:50:39;6.97;;;3.20;;
295;SDS011;132;48.770;9.200;2023-04-03T07:53:06;9.40;;;3.65;;
295;SDS011;132;48.770;9.200;2023-04-03T07:55:33;5.63;;;3.60;;
295;SDS011;132;48.770;9.200;2023-04-03T07:58:06;6.65;;;3.80;;
295;SDS011;132;48.770;9.200;2023-04-03T08:00:33;5.88;;;3.55;;
295;SDS011;132;48.770;9.200;2023-04-03T08:02:59;4.85;;;3.40;;
295;SDS011;132;48.770;9.200;2023-04-03T08:05:26;4.35;;;3.47;;
295;SDS011;132;48.770;9.200;2023-04-03T08:07:52;4.45;;;3.33;;
295;SDS011;132;48.770;9.200;2023-04-03T08:10:19;4.30;;;3.58;;
295;SDS011;132;48.770;9.200;2023-04-03T08:12:46;6.30;;;4.00;;
295;SDS011;132;48.770;9.200;2023-04-03T08:15:13;7.63;;;4.10;;
295;SDS011;132;48.770;9.200;2023-04-03T08:17:39;7.50;;;4.00;;
295;SDS011;132;48.770;9.200;2023-04-03T08:20:06;9.95;;;4.32;;
295;SDS011;132;48.770;9.200;2023-04-03T08:22:34;5.85;;;4.10;;
295;SDS011;132;48.770;9.200;2023-04-03T08:25:00;6.63;;;3.33;;
295;SDS011;132;48.770;9.200;2023-04-03T08:27:27;7.65;;;3.72;;
295;SDS011;132;48.770;9.200;2023-04-03T08:29:54;6.63;;;3.90;;
295;SDS011;132;48.770;9.200;2023-04-03T08:32:22;5.85;;;3.65;;
295;SDS011;132;48.770;9.200;2023-04-03T08:34:49;8.43;;;4.00;;
295;SDS011;132;48.770;9.200;2023-04-03T08:37:15;7.45;;;3.60;;
295;SDS011;132;48.770;9.200;2023-04-03T08:39:42;8.98;;;4.40;;
295;SDS011;132;48.770;9.200;2023-04-03T08:42:30;6.63;;;4.18;;
295;SDS011;132;48.770;9.200;2023-04-03T08:45:13;6.30;;;4.03;;
295;SDS011;132;48.770;9.200;2023-04-03T08:50:34;7.65;;;4.35;;
295;SDS011;132;48.770;9.200;2023-04-03T08:53:05;7.03;;;4.13;;
295;SDS011;132;48.770;9.200;2023-04-03T08:55:40;7.82;;;3.83;;
295;SDS011;132;48.770;9.200;2023-04-03T08:58:11;4.90;;;3.50;;
295;SDS011;132;48.770;9.200;2023-04-03T09:00:59;5.55;;;4.13;;
295;SDS011;132;48.770;9.200;2023-04-03T09:03:30;6.55;;;3.50;;
295;SDS011;132;48.770;9.200;2023-04-03T09:06:05;12.25;;;4.10;;
295;SDS011;132;48.770;9.200;2023-04-03T09:08:45;4.90;;;3.63;;
295;SDS011;132;48.770;9.200;2023-04-03T09:11:40;7.40;;;3.80;;
295;SDS011;132;48.770;9.200;2023-04-03T09:21:59;4.63;;;3.60;;
295;SDS011;132;48.770;9.200;2023-04-03T09:24:43;7.47;;;3.53;;
295;SDS011;132;48.770;9.200;2023-04-03T09:27:11;5.53;;;3.20;;
295;SDS011;132;48.770;9.200;2023-04-03T09:29:41;5.45;;;3.10;;
295;SDS011;132;48.770;9.200;2023-04-03T09:37:49;6.07;;;3.30;;
295;SDS011;132;48.770;9.200;2023-04-03T09:42:54;4.95;;;3.05;;
295;SDS011;132;48.770;9.200;2023-04-03T09:45:24;5.85;;;3.60;;
295;SDS011;132;48.770;9.200;2023-04-03T09:48:04;8.02;;;3.72;;
295;SDS011;132;48.770;9.200;2023-04-03T09:50:52;10.50;;;4.15;;
295;SDS011;132;48.770;9.200;2023-04-03T09:58:47;7.38;;;3.70;;
295;SDS011;132;48.770;9.200;2023-04-03T10:01:31;6.40;;;3.67;;
295;SDS011;132;48.770;9.200;2023-04-03T10:06:38;6.57;;;3.25;;
295;SDS011;132;48.770;9.200;2023-04-03T10:09:17;7.70;;;3.25;;
295;SDS011;132;48.770;9.200;2023-04-03T10:11:57;5.85;;;3.30;;
295;SDS011;132;48.770;9.200;2023-04-03T10:14:23;5.95;;;3.60;;
295;SDS011;132;48.770;9.200;2023-04-03T10:16:53;4.68;;;3.50;;
295;SDS011;132;48.770;9.200;2023-04-03T10:19:34;6.07;;;3.45;;
295;SDS011;132;48.770;9.200;2023-04-03T10:22:03;7.03;;;3.78;;
295;SDS011;132;48.770;9.200;2023-04-03T10:24:52;5.95;;;3.55;;
295;SDS011;132;48.770;9.200;2023-04-03T10:38:42;7.03;;;3.20;;
295;SDS011;132;48.770;9.200;2023-04-03T10:45:08;7.57;;;3.20;;
295;SDS011;132;48.770;9.200;2023-04-03T10:56:01;6.63;;;3.50;;
295;SDS011;132;48.770;9.200;2023-04-03T10:58:52;4.22;;;3.35;;
295;SDS011;132;48.770;9.200;2023-04-03T11:01:31;4.25;;;2.70;;
295;SDS011;132;48.770;9.200;2023-04-03T11:04:02;6.35;;;3.20;;
295;SDS011;132;48.770;9.200;2023-04-03T11:12:56;5.15;;;3.00;;
295;SDS011;132;48.770;9.200;2023-04-03T11:15:32;4.78;;;3.00;;
295;SDS011;132;48.770;9.200;2023-04-03T11:18:03;5.15;;;2.67;;
295;SDS011;132;48.770;9.200;2023-04-03T11:20:42;3.97;;;2.70;;
295;SDS011;132;48.770;9.200;2023-04-03T11:23:25;5.57;;;2.80;;
295;SDS011;132;48.770;9.200;2023-04-03T11:25:56;4.13;;;2.60;;
295;SDS011;132;48.770;9.200;2023-04-03T11:28:30;4.47;;;2.80;;
295;SDS011;132;48.770;9.200;2023-04-03T11:32:01;3.58;;;2.67;;
295;SDS011;132;48.770;9.200;2023-04-03T11:34:08;6.05;;;2.90;;
295;SDS011;132;48.770;9.200;2023-04-03T11:36:58;7.47;;;3.15;;
295;SDS011;132;48.770;9.200;2023-04-03T11:39:27;5.03;;;3.35;;
295;SDS011;132;48.770;9.200;2023-04-03T11:42:36;6.35;;;3.80;;
295;SDS011;132;48.770;9.200;2023-04-03T11:47:56;3.58;;;2.83;;
295;SDS011;132;48.770;9.200;2023-04-03T11:50:47;5.25;;;3.28;;
295;SDS011;132;48.770;9.200;2023-04-03T11:58:20;3.70;;;2.75;;
295;SDS011;132;48.770;9.200;2023-04-03T12:01:07;7.78;;;3.53;;
295;SDS011;132;48.770;9.200;2023-04-03T12:16:26;8.65;;;3.35;;
295;SDS011;132;48.770;9.200;2023-04-03T12:18:56;6.07;;;3.25;;
295;SDS011;132;48.770;9.200;2023-04-03T12:24:22;6.63;;;3.00;;
295;SDS011;132;48.770;9.200;2023-04-03T12:29:24;6.35;;;3.83;;
295;SDS011;132;48.770;9.200;2023-04-03T12:37:18;5.43;;;3.10;;
295;SDS011;132;48.770;9.200;2023-04-03T12:39:52;6.05;;;3.00;;
295;SDS011;132;48.770;9.200;2023-04-03T12:45:19;3.83;;;2.97;;
295;SDS011;132;48.770;9.200;2023-04-03T12:47:51;4.85;;;2.90;;
295;SDS011;132;48.770;9.200;2023-04-03T12:50:23;6.28;;;2.90;;
295;SDS011;132;48.770;9.200;2023-04-03T12:53:03;6.28;;;3.13;;
295;SDS011;132;48.770;9.200;2023-04-03T12:56:19;4.65;;;2.88;;
295;SDS011;132;48.770;9.200;2023-04-03T12:58:51;4.68;;;3.60;;
295;SDS011;132;48.770;9.200;2023-04-03T13:01:25;6.40;;;3.20;;
295;SDS011;132;48.770;9.200;2023-04-03T13:03:53;5.82;;;3.33;;
295;SDS011;132;48.770;9.200;2023-04-03T13:06:23;5.97;;;3.60;;
295;SDS011;132;48.770;9.200;2023-04-03T13:08:56;6.97;;;4.20;;
295;SDS011;132;48.770;9.200;2023-04-03T13:11:32;5.10;;;3.40;;
295;SDS011;132;48.770;9.200;2023-04-03T13:14:05;7.60;;;3.40;;
295;SDS011;132;48.770;9.200;2023-04-03T13:16:40;4.60;;;3.45;;
295;SDS011;132;48.770;9.200;2023-04-03T13:19:14;4.13;;;3.58;;
295;SDS011;132;48.770;9.200;2023-04-03T13:21:42;4.15;;;3.25;;
295;SDS011;132;48.770;9.200;2023-04-03T13:24:10;5.60;;;3.30;;
295;SDS011;132;48.770;9.200;2023-04-03T13:26:37;5.57;;;3.40;;
295;SDS011;132;48.770;9.200;2023-04-03T13:29:05;5.72;;;2.75;;
295;SDS011;132;48.770;9.200;2023-04-03T13:31:34;4.32;;;2.80;;
295;SDS011;132;48.770;9.200;2023-04-03T13:34:04;4.97;;;3.33;;
295;SDS011;132;48.770;9.200;2023-04-03T13:36:37;5.80;;;3.47;;
295;SDS011;132;48.770;9.200;2023-04-03T13:39:17;5.78;;;3.50;;
295;SDS011;132;48.770;9.200;2023-04-03T13:41:49;4.47;;;3.80;;
295;SDS011;132;48.770;9.200;2023-04-03T13:46:52;4.25;;;3.65;;
295;SDS011;132;48.770;9.200;2023-04-03T13:49:21;5.25;;;3.75;;
295;SDS011;132;48.770;9.200;2023-04-03T13:54:51;9.30;;;3.43;;
295;SDS011;132;48.770;9.200;2023-04-03T13:57:20;6.97;;;5.77;;
295;SDS011;132;48.770;9.200;2023-04-03T13:59:47;6.60;;;4.40;;
295;SDS011;132;48.770;9.200;2023-04-03T14:04:50;4.23;;;3.23;;
295;SDS011;132;48.770;9.200;2023-04-03T14:07:22;7.60;;;7.20;;
295;SDS011;132;48.770;9.200;2023-04-03T14:09:49;5.83;;;3.37;;
295;SDS011;132;48.770;9.200;2023-04-03T14:12:35;5.27;;;3.53;;
295;SDS011;132;48.770;9.200;2023-04-03T14:15:07;5.10;;;3.15;;
295;SDS011;132;48.770;9.200;2023-04-03T14:17:43;4.38;;;3.10;;
295;SDS011;132;48.770;9.200;2023-04-03T14:20:14;4.85;;;3.60;;
295;SDS011;132;48.770;9.200;2023-04-03T14:22:41;6.57;;;3.40;;
295;SDS011;132;48.770;9.200;2023-04-03T14:25:09;6.75;;;3.30;;
295;SDS011;132;48.770;9.200;2023-04-03T14:27:37;5.18;;;3.17;;
295;SDS011;132;48.770;9.200;2023-04-03T14:30:07;8.35;;;2.90;;
295;SDS011;132;48.770;9.200;2023-04-03T14:32:40;4.20;;;3.22;;
295;SDS011;132;48.770;9.200;2023-04-03T14:35:07;839.55;;;799.50;;
295;SDS011;132;48.770;9.200;2023-04-03T14:37:33;922.87;;;878.87;;
295;SDS011;132;48.770;9.200;2023-04-03T14:40:01;1001.37;;;953.67;;
295;SDS011;132;48.770;9.200;2023-04-03T14:42:30;659.07;;;627.63;;
295;SDS011;132;48.770;9.200;2023-04-03T14:44:59;794.83;;;756.93;;
295;SDS011;132;48.770;9.200;2023-04-03T14:47:27;8.27;;;5.97;;
295;SDS011;132;48.770;9.200;2023-04-03T14:49:55;5.33;;;3.50;;
295;SDS011;132;48.770;9.200;2023-04-03T14:52:23;5.53;;;3.13;;
295;SDS011;132;48.770;9.200;2023-04-03T14:54:50;6.30;;;3.30;;
295;SDS011;132;48.770;9.200;2023-04-03T14:57:17;3.30;;;2.80;;
295;SDS011;132;48.770;9.200;2023-04-03T14:59:45;7.63;;;3.20;;
295;SDS011;132;48.770;9.200;2023-04-03T15:05:02;6.17;;;2.93;;
295;SDS011;132;48.770;9.200;2023-04-03T15:07:41;6.28;;;3.80;;
295;SDS011;132;48.770;9.200;2023-04-03T15:10:20;6.35;;;4.13;;
295;SDS011;132;48.770;9.200;2023-04-03T15:12:49;5.45;;;3.47;;
295;SDS011;132;48.770;9.200;2023-04-03T15:15:17;5.07;;;3.20;;
295;SDS011;132;48.770;9.200;2023-04-03T15:17:46;7.10;;;3.42;;
295;SDS011;132;48.770;9.200;2023-04-03T15:20:17;6.05;;;4.00;;
295;SDS011;132;48.770;9.200;2023-04-03T15:22:45;10.15;;;3.40;;
295;SDS011;132;48.770;9.200;2023-04-03T15:25:12;5.18;;;3.00;;
295;SDS011;132;48.770;9.200;2023-04-03T15:27:39;6.93;;;3.10;;
295;SDS011;132;48.770;9.200;2023-04-03T15:30:06;5.38;;;3.00;;
295;SDS011;132;48.770;9.200;2023-04-03T15:32:34;4.20;;;2.50;;
295;SDS011;132;48.770;9.200;2023-04-03T15:35:01;3.10;;;2.63;;
295;SDS011;132;48.770;9.200;2023-04-03T15:37:31;4.63;;;2.75;;
295;SDS011;132;48.770;9.200;2023-04-03T15:40:04;4.85;;;2.95;;
295;SDS011;132;48.770;9.200;2023-04-03T15:42:32;4.13;;;2.72;;
295;SDS011;132;48.770;9.200;2023-04-03T15:44:58;5.28;;;3.00;;
295;SDS011;132;48.770;9.200;2023-04-03T15:47:25;8.57;;;3.03;;
295;SDS011;132;48.770;9.200;2023-04-03T15:49:53;5.50;;;3.00;;
295;SDS011;132;48.770;9.200;2023-04-03T15:52:21;3.53;;;2.90;;
295;SDS011;132;48.770;9.200;2023-04-03T15:54:50;5.72;;;3.00;;
295;SDS011;132;48.770;9.200;2023-04-03T15:57:20;4.20;;;3.00;;
295;SDS011;132;48.770;9.200;2023-04-03T15:59:51;4.25;;;2.95;;
295;SDS011;132;48.770;9.200;2023-04-03T16:02:18;4.70;;;2.75;;
295;SDS011;132;48.770;9.200;2023-04-03T16:04:45;3.13;;;2.80;;
295;SDS011;132;48.770;9.200;2023-04-03T16:07:11;5.97;;;2.90;;
295;SDS011;132;48.770;9.200;2023-04-03T16:09:38;5.07;;;2.80;;
295;SDS011;132;48.770;9.200;2023-04-03T16:12:04;5.15;;;3.20;;
295;SDS011;132;48.770;9.200;2023-04-03T16:14:31;7.75;;;3.33;;
295;SDS011;132;48.770;9.200;2023-04-03T16:16:57;4.47;;;2.80;;
295;SDS011;132;48.770;9.200;2023-04-03T16:19:24;4.50;;;2.90;;
295;SDS011;132;48.770;9.200;2023-04-03T16:21:51;5.43;;;3.08;;
295;SDS011;132;48.770;9.200;2023-04-03T16:24:20;4.22;;;2.85;;
295;SDS011;132;48.770;9.200;2023-04-03T16:26:46;5.07;;;2.50;;
295;SDS011;132;48.770;9.200;2023-04-03T16:29:13;3.10;;;2.60;;
295;SDS011;132;48.770;9.200;2023-04-03T16:31:39;5.88;;;3.20;;
295;SDS011;132;48.770;9.200;2023-04-03T16:34:06;4.70;;;2.97;;
295;SDS011;132;48.770;9.200;2023-04-03T16:36:32;5.00;;;3.03;;
295;SDS011;132;48.770;9.200;2023-04-03T16:38:58;4.30;;;2.95;;
295;SDS011;132;48.770;9.200;2023-04-03T16:41:25;5.25;;;2.60;;
295;SDS011;132;48.770;9.200;2023-04-03T16:43:51;3.15;;;2.65;;
295;SDS011;132;48.770;9.200;2023-04-03T16:46:18;4.57;;;2.90;;
295;SDS011;132;48.770;9.200;2023-04-03T16:48:44;3.45;;;2.70;;
295;SDS011;132;48.770;9.200;2023-04-03T16:51:11;5.63;;;2.90;;
295;SDS011;132;48.770;9.200;2023-04-03T16:53:38;6.70;;;2.97;;
295;SDS011;132;48.770;9.200;2023-04-03T16:56:05;5.00;;;3.08;;
295;SDS011;132;48.770;9.200;2023-04-03T16:58:31;4.25;;;2.90;;
295;SDS011;132;48.770;9.200;2023-04-03T17:00:58;4.78;;;2.70;;
295;SDS011;132;48.770;9.200;2023-04-03T17:03:24;4.60;;;2.90;;
295;SDS011;132;48.770;9.200;2023-04-03T17:05:51;3.70;;;2.70;;
295;SDS011;132;48.770;9.200;2023-04-03T17:08:18;3.83;;;2.80;;
295;SDS011;132;48.770;9.200;2023-04-03T17:10:45;4.88;;;3.05;;
295;SDS011;132;48.770;9.200;2023-04-03T17:13:12;3.80;;;2.90;;
295;SDS011;132;48.770;9.200;2023-04-03T17:15:39;6.30;;;3.58;;
295;SDS011;132;48.770;9.200;2023-04-03T17:18:06;5.97;;;3.22;;
295;SDS011;132;48.770;9.200;2023-04-03T17:20:33;6.78;;;3.20;;
295;SDS011;132;48.770;9.200;2023-04-03T17:22:59;8.30;;;3.05;;
295;SDS011;132;48.770;9.200;2023-04-03T17:25:26;4.28;;;2.80;;
295;SDS011;132;48.770;9.200;2023-04-03T17:27:52;4.45;;;3.22;;
295;SDS011;132;48.770;9.200;2023-04-03T17:30:19;5.22;;;3.13;;
295;SDS011;132;48.770;9.200;2023-04-03T17:32:45;5.38;;;3.10;;
295;SDS011;132;48.770;9.200;2023-04-03T17:35:11;4.40;;;3.15;;
295;SDS011;132;48.770;9.200;2023-04-03T17:37:38;6.13;;;3.40;;
295;SDS011;132;48.770;9.200;2023-04-03T17:40:05;7.07;;;3.38;;
295;SDS011;132;48.770;9.200;2023-04-03T17:42:32;4.45;;;3.20;;
295;SDS011;132;48.770;9.200;2023-04-03T17:44:58;6.40;;;3.30;;